Time;durP1;ratioP1;P1;durP2;ratioP2;P2;SDS_P1;SDS_P2;PMS_P1;PMS_P2;Temp;Humidity;BMP_temperature;BMP_pressure;BME280_temperature;BME280_humidity;BME280_pressure;Samples;Min_cycle;Max_cycle;Signal;HPM_P1;HPM_P2
2022/07/24 00:01:20;;;;;;;;;;;;;;;13.31;100.00;99934.06;6155079;23;19922;-90
2022/07/24 00:03:46;;;;;;;;;;;;;;;13.24;100.00;99936.19;6166037;23;19920;-88
2022/07/24 00:06:11;;;;;;;;;;;;;;;13.22;100.00;99935.41;6178021;23;19917;-85
2022/07/24 00:08:37;;;;;;;;;;;;;;;13.29;100.00;99933.31;6153573;23;20049;-85
2022/07/24 00:11:02;;;;;;;;;;;;;;;13.43;100.00;99929.94;6180858;23;19942;-84
2022/07/24 00:13:27;;;;;;;;;;;;;;;13.25;100.00;99932.56;6180616;23;20217;-84
2022/07/24 00:15:52;;;;;;;;;;;;;;;13.13;100.00;99930.56;6154386;22;19999;-85
2022/07/24 00:18:18;;;;;;;;;;;;;;;13.35;100.00;99929.47;6154527;22;20263;-84
2022/07/24 00:20:46;;;;;;;;;;;;;;;13.37;100.00;99933.78;6180452;23;19995;-85
2022/07/24 00:23:11;;;;;;;;;;;;;;;13.24;100.00;99933.53;6153094;23;19916;-85
2022/07/24 00:25:37;;;;;;;;;;;;;;;13.22;100.00;99935.41;6154246;23;19935;-86
2022/07/24 00:28:02;;;;;;;;;;;;;;;13.35;100.00;99934.81;6180320;23;19920;-84
2022/07/24 00:30:27;;;;;;;;;;;;;;;13.31;100.00;99930.56;6180671;23;19916;-86
2022/07/24 00:32:53;;;;;;;;;;;;;;;13.18;100.00;99939.16;6180774;23;20411;-85
2022/07/24 00:35:21;;;;;;;;;;;;;;;13.37;100.00;99933.78;6153465;23;20189;-88
2022/07/24 00:37:47;;;;;;;;;;;;;;;13.32;100.00;99930.47;6152622;23;19961;-85
2022/07/24 00:43:22;;;;;;;;;;;;;;;13.14;100.00;99939.41;6180548;23;19938;-88
2022/07/24 00:45:48;;;;;;;;;;;;;;;13.38;100.00;99932.84;6180390;23;19912;-83
2022/07/24 00:48:13;;;;;;;;;;;;;;;13.27;100.00;99938.69;6180558;23;19950;-84
2022/07/24 00:50:39;;;;;;;;;;;;;;;13.17;100.00;99937.44;6180528;23;19917;-86
2022/07/24 00:53:04;;;;;;;;;;;;;;;13.30;100.00;99931.50;6179106;23;19912;-83
2022/07/24 00:55:30;;;;;;;;;;;;;;;13.35;100.00;99932.13;6180626;23;20426;-85
2022/07/24 00:57:55;;;;;;;;;;;;;;;13.27;100.00;99936.03;6180317;23;20283;-84
2022/07/24 01:00:23;;;;;;;;;;;;;;;13.29;100.00;99932.41;6179981;23;19916;-86
2022/07/24 01:02:52;;;;;;;;;;;;;;;13.35;100.00;99937.47;6154119;23;19935;-84
2022/07/24 01:05:18;;;;;;;;;;;;;;;13.31;100.00;99936.75;6180383;23;19943;-83
2022/07/24 01:07:46;;;;;;;;;;;;;;;13.26;100.00;99947.63;6178473;23;19962;-87
2022/07/24 01:10:11;;;;;;;;;;;;;;;13.40;100.00;99944.28;6153960;23;19958;-86
2022/07/24 01:12:38;;;;;;;;;;;;;;;13.26;100.00;99942.28;6180174;23;19916;-85
2022/07/24 01:15:04;;;;;;;;;;;;;;;13.26;100.00;99938.78;6180505;23;19975;-85
2022/07/24 01:17:30;;;;;;;;;;;;;;;13.37;100.00;99932.91;6154888;22;19920;-84
2022/07/24 01:19:56;;;;;;;;;;;;;;;13.44;100.00;99937.00;6180369;23;19969;-84
2022/07/24 01:22:21;;;;;;;;;;;;;;;13.29;100.00;99938.63;6179160;23;19958;-86
2022/07/24 01:24:48;;;;;;;;;;;;;;;13.42;100.00;99941.53;6154704;22;19916;-85
2022/07/24 01:27:13;;;;;;;;;;;;;;;13.43;100.00;99936.13;6180584;23;19958;-84
2022/07/24 01:29:39;;;;;;;;;;;;;;;13.35;100.00;99940.97;6180339;23;19916;-84
2022/07/24 01:32:04;;;;;;;;;;;;;;;13.57;100.00;99940.72;6154241;22;19940;-84
2022/07/24 01:34:30;;;;;;;;;;;;;;;13.39;100.00;99939.03;6180513;23;19916;-84
2022/07/24 01:36:55;;;;;;;;;;;;;;;13.26;100.00;99947.63;6178811;23;19912;-83
2022/07/24 01:39:20;;;;;;;;;;;;;;;13.33;100.00;99940.19;6154323;22;19913;-84
2022/07/24 01:41:46;;;;;;;;;;;;;;;13.34;100.00;99941.06;6180429;23;19912;-84
2022/07/24 01:44:11;;;;;;;;;;;;;;;13.18;100.00;99938.28;6180148;23;19924;-85
2022/07/24 01:46:36;;;;;;;;;;;;;;;13.17;100.00;99940.09;6180304;23;19995;-84
2022/07/24 01:49:02;;;;;;;;;;;;;;;13.30;100.00;99931.50;6180305;23;20244;-84
2022/07/24 01:51:27;;;;;;;;;;;;;;;13.32;100.00;99938.44;6178845;23;19912;-84
2022/07/24 01:53:53;;;;;;;;;;;;;;;13.26;100.00;99941.44;6153861;23;19912;-83
2022/07/24 01:56:18;;;;;;;;;;;;;;;13.30;100.00;99943.00;6180328;23;19912;-84
2022/07/24 01:58:43;;;;;;;;;;;;;;;13.27;100.00;99941.38;6179913;23;19943;-84
2022/07/24 02:01:16;;;;;;;;;;;;;;;13.25;100.00;99931.72;6154168;23;19954;-86
2022/07/24 03:34:14;;;;;;;;;;;;;;;12.83;100.00;99938.31;6271365;22;20362;-87
2022/07/24 03:36:39;;;;;;;;;;;;;;;12.70;100.00;99930.03;6275126;22;19915;-87
2022/07/24 03:39:06;;;;;;;;;;;;;;;12.91;100.00;99936.13;6274226;22;20264;-88
2022/07/24 03:41:32;;;;;;;;;;;;;;;12.89;100.00;99936.19;6276816;22;19915;-88
2022/07/24 03:43:57;;;;;;;;;;;;;;;12.76;100.00;99943.03;6277185;22;19912;-88
2022/07/24 03:46:46;;;;;;;;;;;;;;;12.86;100.00;99940.78;6275682;22;20310;-88
2022/07/24 03:49:34;;;;;;;;;;;;;;;13.02;100.00;99943.53;6277098;22;20378;-90
2022/07/24 03:52:03;;;;;;;;;;;;;;;13.04;100.00;99945.19;6275411;22;19947;-91
2022/07/24 03:54:28;;;;;;;;;;;;;;;12.99;100.00;99944.56;6277444;22;20346;-90
2022/07/24 03:56:54;;;;;;;;;;;;;;;12.88;100.00;99942.44;6275428;22;19916;-90
2022/07/24 03:59:19;;;;;;;;;;;;;;;13.09;100.00;99950.28;6277303;22;20436;-90
2022/07/24 04:08:36;;;;;;;;;;;;;;;12.89;100.00;99953.91;6092512;23;19917;-95
2022/07/24 04:19:49;;;;;;;;;;;;;;;;;;;;;
2022/07/24 04:22:15;;;;;;;;;;;;;;;13.10;100.00;99965.31;6215800;23;19995;-89
2022/07/24 05:07:40;;;;;;;;;;;;;;;13.07;100.00;99968.97;5838505;24;19969;-93
2022/07/24 05:10:11;;;;;;;;;;;;;;;12.93;100.00;99971.47;5843113;24;19927;-88
2022/07/24 05:12:36;;;;;;;;;;;;;;;12.92;100.00;99980.38;5980336;23;19915;-88
2022/07/24 12:34:07;;;;;;;;;;;;;;;;;;;;;
2022/07/24 12:36:47;;;;;;;;;;;;;;;;;;;;;
2022/07/24 12:39:35;;;;;;;;;;;;;;;13.07;100.00;99712.75;6308046;22;20405;-88
2022/07/24 12:42:16;;;;;;;;;;;;;;;12.94;100.00;99717.00;6307172;22;19990;-89
2022/07/24 12:44:45;;;;;;;;;;;;;;;12.95;100.00;99711.59;6307490;22;19911;-87
2022/07/24 12:47:18;;;;;;;;;;;;;;;13.02;100.00;99714.78;6307905;22;20322;-87
2022/07/24 12:49:47;;;;;;;;;;;;;;;13.17;100.00;99708.66;6278640;22;20242;-86
2022/07/24 12:52:28;;;;;;;;;;;;;;;13.06;100.00;99700.41;6308123;22;19950;-86
2022/07/24 12:54:54;;;;;;;;;;;;;;;13.07;100.00;99704.78;6307717;22;20355;-87
2022/07/24 12:57:24;;;;;;;;;;;;;;;13.00;100.00;99706.94;6307857;22;19907;-87
2022/07/24 12:59:49;;;;;;;;;;;;;;;13.24;100.00;99702.06;6280916;22;20322;-86
2022/07/24 13:02:19;;;;;;;;;;;;;;;13.18;100.00;99699.72;6280697;22;19949;-85
2022/07/24 13:04:51;;;;;;;;;;;;;;;13.02;100.00;99696.16;6307083;22;19982;-87
2022/07/24 13:07:21;;;;;;;;;;;;;;;12.86;100.00;99689.03;6281380;22;19907;-86
2022/07/24 13:09:46;;;;;;;;;;;;;;;13.04;100.00;99692.50;6280645;22;19946;-86
2022/07/24 13:12:12;;;;;;;;;;;;;;;13.05;100.00;99688.91;6307514;22;19917;-87
2022/07/24 13:14:38;;;;;;;;;;;;;;;13.03;100.00;99685.44;6307406;22;20390;-85
2022/07/24 13:17:13;;;;;;;;;;;;;;;;;;;;;
2022/07/24 13:19:40;;;;;;;;;;;;;;;13.13;100.00;99679.63;6305928;22;20001;-86
2022/07/24 13:22:11;;;;;;;;;;;;;;;13.15;100.00;99669.78;6280010;22;19938;-91
2022/07/24 13:24:40;;;;;;;;;;;;;;;13.05;100.00;99667.63;6273461;22;20323;-87
2022/07/24 13:27:08;;;;;;;;;;;;;;;12.96;100.00;99660.16;6247965;22;19915;-87
2022/07/24 13:29:35;;;;;;;;;;;;;;;13.05;100.00;99662.31;6273958;22;19918;-87
2022/07/24 13:32:10;;;;;;;;;;;;;;;;;;;;;
2022/07/24 13:34:36;;;;;;;;;;;;;;;13.03;100.00;99660.66;6272576;22;20035;-86
2022/07/24 13:37:04;;;;;;;;;;;;;;;12.95;100.00;99652.25;6274262;22;19945;-89
2022/07/24 13:39:39;;;;;;;;;;;;;;;13.06;100.00;99636.56;6273030;22;19994;-87
2022/07/24 13:42:07;;;;;;;;;;;;;;;12.98;100.00;99644.09;6273233;22;19915;-87
2022/07/24 13:44:35;;;;;;;;;;;;;;;13.02;100.00;99635.00;6273345;22;19939;-86
2022/07/24 13:47:02;;;;;;;;;;;;;;;12.96;100.00;99630.91;6272793;22;20131;-86
2022/07/24 13:49:30;;;;;;;;;;;;;;;12.98;100.00;99625.50;6270407;22;20007;-88
2022/07/24 13:51:56;;;;;;;;;;;;;;;13.03;100.00;99620.78;6272849;22;20239;-85
2022/07/24 13:54:30;;;;;;;;;;;;;;;13.04;100.00;99618.03;6273657;22;19911;-91
2022/07/24 13:57:15;;;;;;;;;;;;;;;;;;;;;
2022/07/24 13:59:44;;;;;;;;;;;;;;;12.88;100.00;99607.38;6307128;22;19986;-90
2022/07/24 14:02:20;;;;;;;;;;;;;;;;;;;;;
2022/07/24 14:04:57;;;;;;;;;;;;;;;13.05;100.00;99598.47;6306454;22;20005;-86
2022/07/24 14:07:22;;;;;;;;;;;;;;;12.89;100.00;99597.59;6307911;22;19937;-87
2022/07/24 14:10:16;;;;;;;;;;;;;;;12.84;100.00;99589.03;6306571;22;20369;-88
2022/07/24 14:12:51;;;;;;;;;;;;;;;12.90;100.00;99584.22;6292633;22;19911;-86
2022/07/24 14:15:16;;;;;;;;;;;;;;;13.06;100.00;99586.03;6306904;22;19911;-85
2022/07/24 14:17:47;;;;;;;;;;;;;;;12.98;100.00;99581.13;6305410;22;19946;-87
2022/07/24 14:20:15;;;;;;;;;;;;;;;12.88;100.00;99578.13;6306942;22;19915;-86
2022/07/24 14:25:56;;;;;;;;;;;;;;;13.07;100.00;99563.81;6166476;23;19920;-87
2022/07/24 14:28:23;;;;;;;;;;;;;;;12.94;100.00;99565.44;6306738;22;19915;-89
2022/07/24 14:31:07;;;;;;;;;;;;;;;12.93;100.00;99563.75;6306301;22;20345;-86
2022/07/24 14:33:34;;;;;;;;;;;;;;;13.00;100.00;99555.34;6305088;22;20318;-86
2022/07/24 14:36:15;;;;;;;;;;;;;;;;;;;;;
2022/07/24 14:42:00;;;;;;;;;;;;;;;13.04;100.00;99542.72;6277664;22;20310;-87
2022/07/24 14:44:31;;;;;;;;;;;;;;;12.99;100.00;99539.47;6306882;22;20005;-87
2022/07/24 14:47:06;;;;;;;;;;;;;;;;;;;;;
2022/07/24 14:49:32;;;;;;;;;;;;;;;13.13;100.00;99538.66;6305574;22;19993;-87
2022/07/24 14:51:58;;;;;;;;;;;;;;;13.10;100.00;99531.72;6306473;22;19954;-88
2022/07/24 14:54:50;;;;;;;;;;;;;;;;;;;;;
2022/07/24 15:03:15;;;;;;;;;;;;;;;;;;;;;
2022/07/24 15:05:40;;;;;;;;;;;;;;;13.14;100.00;99522.59;6306110;22;19977;-86
2022/07/24 15:08:08;;;;;;;;;;;;;;;13.00;100.00;99514.56;6306211;22;20382;-86
2022/07/24 15:10:48;;;;;;;;;;;;;;;13.06;100.00;99515.06;6306407;22;19968;-87
2022/07/24 15:13:23;;;;;;;;;;;;;;;13.21;100.00;99508.00;6306359;22;19960;-87
2022/07/24 15:15:56;;;;;;;;;;;;;;;13.14;100.00;99505.78;6279143;22;20052;-86
2022/07/24 15:18:26;;;;;;;;;;;;;;;12.96;100.00;99497.09;6304878;22;20326;-86
2022/07/24 15:20:56;;;;;;;;;;;;;;;13.09;100.00;99496.28;6278853;22;19911;-86
2022/07/24 15:23:39;;;;;;;;;;;;;;;13.27;100.00;99493.47;6278939;22;20254;-86
2022/07/24 15:26:14;;;;;;;;;;;;;;;;;;;;;
2022/07/24 15:28:46;;;;;;;;;;;;;;;13.01;100.00;99487.03;6305902;22;20053;-86
2022/07/24 15:31:13;;;;;;;;;;;;;;;13.04;100.00;99487.69;6278678;22;20005;-85
2022/07/24 15:33:46;;;;;;;;;;;;;;;13.15;100.00;99480.91;6275851;22;19938;-86
2022/07/24 15:36:22;;;;;;;;;;;;;;;13.12;100.00;99475.78;6305603;22;19915;-87
2022/07/24 15:38:48;;;;;;;;;;;;;;;13.10;100.00;99478.53;6279795;22;20306;-84
2022/07/24 15:41:14;;;;;;;;;;;;;;;13.17;100.00;99473.69;6280910;22;19911;-87
2022/07/24 15:46:38;;;;;;;;;;;;;;;13.20;100.00;99469.03;6212637;23;19984;-89
2022/07/24 15:49:06;;;;;;;;;;;;;;;13.13;100.00;99467.72;6267231;22;19990;-89
2022/07/24 15:51:44;;;;;;;;;;;;;;;;;;;;;
2022/07/24 15:54:20;;;;;;;;;;;;;;;13.21;100.00;99461.91;6308315;22;19997;-89
2022/07/24 15:56:57;;;;;;;;;;;;;;;13.14;100.00;99463.25;6308530;22;19961;-91
2022/07/24 16:02:18;;;;;;;;;;;;;;;13.29;100.00;99456.16;6308132;22;19978;-87
2022/07/24 16:04:43;;;;;;;;;;;;;;;13.29;100.00;99458.81;6279717;22;19911;-88
2022/07/24 16:07:08;;;;;;;;;;;;;;;13.18;100.00;99454.09;6307992;22;19922;-88
2022/07/24 16:09:56;;;;;;;;;;;;;;;13.29;100.00;99457.03;6280934;22;19911;-88
2022/07/24 16:12:26;;;;;;;;;;;;;;;13.30;100.00;99452.56;6306437;22;20281;-89
2022/07/24 16:14:54;;;;;;;;;;;;;;;13.30;100.00;99447.22;6279871;22;19942;-91
2022/07/24 16:17:29;;;;;;;;;;;;;;;;;;;;;
2022/07/24 16:20:07;;;;;;;;;;;;;;;;;;;;;
2022/07/24 16:22:34;;;;;;;;;;;;;;;15.06;100.00;99439.75;6307711;22;19994;-87
2022/07/24 16:25:00;;;;;;;;;;;;;;;13.68;100.00;99436.09;6307287;22;19946;-89
2022/07/24 16:27:31;;;;;;;;;;;;;;;14.34;100.00;99435.50;6307242;22;20239;-90
2022/07/24 16:30:01;;;;;;;;;;;;;;;14.31;100.00;99435.69;6308463;22;19911;-89
2022/07/24 16:32:26;;;;;;;;;;;;;;;13.98;100.00;99428.03;6280606;22;19918;-90
2022/07/24 16:34:52;;;;;;;;;;;;;;;13.43;100.00;99430.47;6276754;22;20526;-91
2022/07/24 16:37:17;;;;;;;;;;;;;;;13.27;100.00;99425.19;6306155;22;19922;-89
2022/07/24 16:39:43;;;;;;;;;;;;;;;13.10;100.00;99422.66;6279269;22;19918;-88
2022/07/24 16:42:09;;;;;;;;;;;;;;;12.93;100.00;99428.13;6279559;22;19961;-90
2022/07/24 16:44:34;;;;;;;;;;;;;;;13.09;100.00;99418.28;6278637;22;19911;-90
2022/07/24 16:47:00;;;;;;;;;;;;;;;12.96;100.00;99420.81;6306648;22;19984;-91
2022/07/24 16:49:25;;;;;;;;;;;;;;;12.84;100.00;99425.06;6277872;22;20158;-89
2022/07/24 16:51:57;;;;;;;;;;;;;;;12.97;100.00;99416.34;6306427;22;19936;-89
2022/07/24 16:54:30;;;;;;;;;;;;;;;12.79;100.00;99418.28;6307309;22;20311;-89
2022/07/24 16:57:03;;;;;;;;;;;;;;;12.68;100.00;99408.25;6307557;22;19994;-89
2022/07/24 16:59:29;;;;;;;;;;;;;;;12.70;100.00;99419.66;6278671;22;19948;-89
2022/07/24 17:02:07;;;;;;;;;;;;;;;12.66;100.00;99420.78;6305460;22;19941;-90
2022/07/24 17:04:36;;;;;;;;;;;;;;;12.50;100.00;99416.34;6279528;22;20001;-90
2022/07/24 17:10:02;;;;;;;;;;;;;;;12.65;100.00;99414.63;6143854;22;19925;-91
2022/07/24 17:12:27;;;;;;;;;;;;;;;12.71;100.00;99408.09;6124409;23;20593;-91
2022/07/24 17:14:53;;;;;;;;;;;;;;;12.61;100.00;99418.38;6123135;23;19955;-91
2022/07/24 17:17:18;;;;;;;;;;;;;;;12.75;100.00;99408.75;6149987;23;19919;-88
2022/07/24 17:19:44;;;;;;;;;;;;;;;12.69;100.00;99409.97;6147411;23;19959;-88
2022/07/24 17:22:21;;;;;;;;;;;;;;;12.59;100.00;99411.44;6124689;22;19920;-87
2022/07/24 17:24:49;;;;;;;;;;;;;;;12.64;100.00;99402.28;6150217;23;19913;-88
2022/07/24 17:27:14;;;;;;;;;;;;;;;12.76;100.00;99411.31;6150287;23;19955;-88
2022/07/24 17:30:08;;;;;;;;;;;;;;;12.61;100.00;99406.91;6123507;23;19912;-90
2022/07/24 17:32:34;;;;;;;;;;;;;;;12.60;100.00;99405.19;6155103;23;19917;-89
2022/07/24 17:35:18;;;;;;;;;;;;;;;12.75;100.00;99408.75;6149487;23;20422;-88
2022/07/24 17:37:44;;;;;;;;;;;;;;;12.60;100.00;99406.03;6124882;23;20382;-91
2022/07/24 17:40:12;;;;;;;;;;;;;;;12.61;100.00;99406.91;6149235;23;19920;-91
2022/07/24 17:42:38;;;;;;;;;;;;;;;12.63;100.00;99405.00;6149288;23;19917;-88
2022/07/24 17:45:04;;;;;;;;;;;;;;;12.72;100.00;99405.34;6123884;23;20210;-88
2022/07/24 17:47:30;;;;;;;;;;;;;;;12.62;100.00;99408.59;6149967;23;20244;-89
2022/07/24 17:49:55;;;;;;;;;;;;;;;12.58;100.00;99409.75;6124055;23;19912;-88
2022/07/24 17:52:21;;;;;;;;;;;;;;;12.72;100.00;99407.16;6150265;23;19963;-88
2022/07/24 17:55:12;;;;;;;;;;;;;;;12.55;100.00;99405.44;6124011;23;20325;-89
2022/07/24 17:57:38;;;;;;;;;;;;;;;12.57;100.00;99405.34;6130028;23;19977;-90
2022/07/24 18:00:05;;;;;;;;;;;;;;;12.68;100.00;99403.81;6123761;23;19916;-89
2022/07/24 18:02:30;;;;;;;;;;;;;;;12.61;100.00;99405.09;6122339;23;19913;-88
2022/07/24 18:05:13;;;;;;;;;;;;;;;12.58;100.00;99404.44;6121970;22;20363;-89
2022/07/24 18:07:48;;;;;;;;;;;;;;;12.79;100.00;99394.34;6120458;23;19924;-90
2022/07/24 18:10:16;;;;;;;;;;;;;;;12.68;100.00;99394.97;6146438;23;19917;-95
2022/07/24 18:13:14;;;;;;;;;;;;;;;12.67;100.00;99395.94;6125027;23;19962;-93
2022/07/24 18:15:42;;;;;;;;;;;;;;;12.66;100.00;99399.53;6159415;23;19916;-89
2022/07/24 18:18:07;;;;;;;;;;;;;;;12.78;100.00;99390.84;6150924;22;19970;-90
2022/07/24 18:20:33;;;;;;;;;;;;;;;12.66;100.00;99389.75;6150426;23;19916;-93
2022/07/24 18:23:01;;;;;;;;;;;;;;;12.68;100.00;99387.88;6124570;22;19916;-92
2022/07/24 18:25:27;;;;;;;;;;;;;;;12.87;100.00;99392.94;6150601;23;19912;-91
2022/07/24 18:27:56;;;;;;;;;;;;;;;12.67;100.00;99379.97;6151026;23;19987;-92
2022/07/24 18:30:21;;;;;;;;;;;;;;;12.68;100.00;99382.56;6150143;23;19917;-92
2022/07/24 18:32:49;;;;;;;;;;;;;;;12.96;100.00;99388.06;6149492;23;20324;-92
2022/07/24 18:35:32;;;;;;;;;;;;;;;12.75;100.00;99383.03;6123181;23;19944;-93
2022/07/24 18:38:06;;;;;;;;;;;;;;;12.76;100.00;99381.22;6150535;23;19913;-90
2022/07/24 18:40:32;;;;;;;;;;;;;;;12.75;100.00;99376.84;6149680;23;19943;-92
2022/07/24 18:42:58;;;;;;;;;;;;;;;12.87;100.00;99378.81;6150081;23;19912;-92
2022/07/24 18:45:24;;;;;;;;;;;;;;;12.82;100.00;99378.22;6150134;23;19920;-93
2022/07/24 18:47:49;;;;;;;;;;;;;;;12.79;100.00;99373.09;6150778;22;19928;-92
2022/07/24 18:50:23;;;;;;;;;;;;;;;12.92;100.00;99371.41;6124657;22;19913;-91
2022/07/24 18:52:52;;;;;;;;;;;;;;;12.78;100.00;99368.69;6124280;22;19983;-92
2022/07/24 18:55:17;;;;;;;;;;;;;;;12.71;100.00;99371.72;6150355;23;19919;-92
2022/07/24 19:00:55;;;;;;;;;;;;;;;;;;;;;
2022/07/24 19:03:37;;;;;;;;;;;;;;;;;;;;;
2022/07/24 19:06:32;;;;;;;;;;;;;;;12.78;100.00;99361.59;6180217;22;19995;-90
2022/07/24 19:12:37;;;;;;;;;;;;;;;;;;;;;
2022/07/24 19:15:31;;;;;;;;;;;;;;;;;;;;;
2022/07/24 19:18:20;;;;;;;;;;;;;;;;;;;;;
2022/07/24 19:21:06;;;;;;;;;;;;;;;12.87;100.00;99361.03;6180914;23;20007;-88
2022/07/24 19:23:49;;;;;;;;;;;;;;;12.77;100.00;99367.00;6154546;23;19991;-89
2022/07/24 19:26:30;;;;;;;;;;;;;;;12.82;100.00;99363.13;6154558;22;19912;-89
2022/07/24 19:29:01;;;;;;;;;;;;;;;12.84;100.00;99369.22;6180897;23;19916;-88
2022/07/24 19:31:39;;;;;;;;;;;;;;;;;;;;;
2022/07/24 19:34:16;;;;;;;;;;;;;;;12.80;100.00;99374.81;6179367;22;19999;-89
2022/07/24 19:36:49;;;;;;;;;;;;;;;12.85;100.00;99375.38;6154261;23;19957;-89
2022/07/24 19:39:32;;;;;;;;;;;;;;;12.86;100.00;99374.41;6154162;23;19920;-89
2022/07/24 19:42:33;;;;;;;;;;;;;;;;;;;;;
2022/07/24 19:45:19;;;;;;;;;;;;;;;12.77;100.00;99381.16;6181160;23;20006;-89
2022/07/24 19:47:54;;;;;;;;;;;;;;;12.78;100.00;99379.34;6152655;22;19912;-89
2022/07/24 19:50:39;;;;;;;;;;;;;;;12.99;100.00;99386.06;6154592;22;19935;-89
2022/07/24 19:53:14;;;;;;;;;;;;;;;12.95;100.00;99389.00;6180974;23;20359;-89
2022/07/24 19:55:49;;;;;;;;;;;;;;;12.93;100.00;99386.41;6155424;22;19920;-88
2022/07/24 19:58:17;;;;;;;;;;;;;;;12.92;100.00;99379.38;6154368;23;19994;-89
2022/07/24 20:00:52;;;;;;;;;;;;;;;13.08;100.00;99379.31;6154243;23;19920;-88
2022/07/24 20:03:23;;;;;;;;;;;;;;;13.00;100.00;99382.47;6153837;23;19965;-89
2022/07/24 20:05:58;;;;;;;;;;;;;;;12.86;100.00;99380.63;6180401;23;20403;-88
2022/07/24 20:08:43;;;;;;;;;;;;;;;;;;;;;
2022/07/24 20:11:53;;;;;;;;;;;;;;;;;;;;;
2022/07/24 20:17:18;;;;;;;;;;;;;;;12.93;100.00;99380.25;6189646;22;20244;-88
2022/07/24 20:20:10;;;;;;;;;;;;;;;12.83;100.00;99377.28;6273589;22;19915;-89
2022/07/24 20:22:43;;;;;;;;;;;;;;;12.74;100.00;99383.97;6274277;22;19939;-89
2022/07/24 20:25:14;;;;;;;;;;;;;;;12.92;100.00;99379.38;6271607;22;19911;-89
2022/07/24 20:27:45;;;;;;;;;;;;;;;12.95;100.00;99387.19;6275140;22;19911;-93
2022/07/24 20:30:19;;;;;;;;;;;;;;;12.85;100.00;99389.53;6275997;22;19923;-89
2022/07/24 20:33:08;;;;;;;;;;;;;;;12.77;100.00;99382.97;6273173;22;19945;-89
2022/07/24 20:35:49;;;;;;;;;;;;;;;12.86;100.00;99385.06;6266692;22;19911;-89
2022/07/24 20:38:29;;;;;;;;;;;;;;;12.97;100.00;99382.66;6274151;22;19957;-89
2022/07/24 20:40:56;;;;;;;;;;;;;;;12.90;100.00;99382.13;6274083;22;19912;-89
2022/07/24 20:43:22;;;;;;;;;;;;;;;12.78;100.00;99382.88;6275478;22;19919;-89
2022/07/24 20:45:55;;;;;;;;;;;;;;;12.74;100.00;99381.31;6278930;22;20224;-88
2022/07/24 20:48:47;;;;;;;;;;;;;;;12.92;100.00;99382.03;6276926;22;19953;-90
2022/07/24 20:51:14;;;;;;;;;;;;;;;12.82;100.00;99379.06;6279311;22;19955;-89
2022/07/24 20:56:44;;;;;;;;;;;;;;;12.78;100.00;99384.66;6306427;22;19918;-89
2022/07/24 21:02:10;;;;;;;;;;;;;;;12.93;100.00;99380.25;6307687;22;19918;-88
2022/07/24 21:04:41;;;;;;;;;;;;;;;12.90;100.00;99381.28;6305965;22;19911;-89
2022/07/24 21:07:37;;;;;;;;;;;;;;;12.80;100.00;99380.97;6279876;22;20433;-89
2022/07/24 21:10:08;;;;;;;;;;;;;;;12.77;100.00;99385.63;6304498;22;19963;-89
2022/07/24 21:12:38;;;;;;;;;;;;;;;12.73;100.00;99382.25;6279760;22;20269;-88
2022/07/24 21:15:22;;;;;;;;;;;;;;;12.89;100.00;99383.09;6279361;22;20276;-89
2022/07/24 21:18:11;;;;;;;;;;;;;;;12.88;100.00;99389.34;6278523;22;19985;-89
2022/07/24 21:21:11;;;;;;;;;;;;;;;;;;;;;
2022/07/24 21:26:28;;;;;;;;;;;;;;;12.76;100.00;99378.56;6211932;23;19916;-89
2022/07/24 21:29:06;;;;;;;;;;;;;;;12.92;100.00;99386.50;6272590;22;19969;-89
2022/07/24 21:31:37;;;;;;;;;;;;;;;12.85;100.00;99365.59;6279484;22;20402;-89
2022/07/24 21:34:07;;;;;;;;;;;;;;;12.73;100.00;99376.94;6278184;22;19922;-88
2022/07/24 21:36:42;;;;;;;;;;;;;;;12.81;100.00;99376.50;6279511;22;20060;-90
2022/07/24 21:39:24;;;;;;;;;;;;;;;12.88;100.00;99384.03;6278329;22;20243;-89
2022/07/24 21:41:58;;;;;;;;;;;;;;;12.80;100.00;99378.31;6279749;22;20582;-89
2022/07/24 22:00:13;;;;;;;;;;;;;;;12.94;100.00;99379.28;6133677;23;20027;-90
2022/07/24 22:02:56;;;;;;;;;;;;;;;12.96;100.00;99374.75;6210355;23;19923;-90
2022/07/24 22:15:13;;;;;;;;;;;;;;;12.80;100.00;99358.84;6135721;22;19924;-90
2022/07/24 22:17:54;;;;;;;;;;;;;;;12.76;100.00;99357.31;6121182;22;20003;-90
2022/07/24 22:20:45;;;;;;;;;;;;;;;;;;;;;
2022/07/24 22:24:00;;;;;;;;;;;;;;;12.91;100.00;99359.06;6274747;22;19970;-90
2022/07/24 22:26:39;;;;;;;;;;;;;;;12.98;100.00;99360.41;6273460;22;20319;-90
2022/07/24 22:29:22;;;;;;;;;;;;;;;;;;;;;
2022/07/24 22:35:19;;;;;;;;;;;;;;;;;;;;;
2022/07/24 22:41:31;;;;;;;;;;;;;;;13.01;100.00;99354.06;6245054;22;20011;-90
2022/07/24 22:56:39;;;;;;;;;;;;;;;12.93;100.00;99357.16;6092534;23;20330;-91
2022/07/24 22:59:38;;;;;;;;;;;;;;;13.07;100.00;99356.34;6068175;23;20006;-91
2022/07/24 23:02:25;;;;;;;;;;;;;;;13.08;100.00;99350.06;6037061;22;19913;-91
2022/07/24 23:05:08;;;;;;;;;;;;;;;13.06;100.00;99355.47;6093134;23;19917;-90
2022/07/24 23:07:45;;;;;;;;;;;;;;;13.00;100.00;99352.34;6094704;23;19913;-90
2022/07/24 23:10:26;;;;;;;;;;;;;;;;;;;;;
2022/07/24 23:13:01;;;;;;;;;;;;;;;13.17;100.00;99349.53;6120777;23;20000;-90
2022/07/24 23:15:51;;;;;;;;;;;;;;;;;;;;;
2022/07/24 23:18:52;;;;;;;;;;;;;;;;;;;;;
